sensor_id;sensor_type;location;lat;lon;timestamp;P1;durP1;ratioP1;P2;durP2;ratioP2
80868;SDS011;70295;40.182;44.498;2024-01-11T00:00:03;29.4;;;15.6;;
80868;SDS011;70295;40.182;44.498;2024-01-11T00:02:02;29.7;;;17.4;;
80868;SDS011;70295;40.182;44.498;2024-01-11T00:04:02;28.5;;;17.1;;
80868;SDS011;70295;40.182;44.498;2024-01-11T00:06:02;29.9;;;17.7;;
80868;SDS011;70295;40.182;44.498;2024-01-11T00:08:03;28.7;;;16.4;;
80868;SDS011;70295;40.182;44.498;2024-01-11T00:10:03;30.4;;;17;;
80868;SDS011;70295;40.182;44.498;2024-01-11T00:12:02;25.8;;;15.4;;
80868;SDS011;70295;40.182;44.498;2024-01-11T00:14:02;25.4;;;15.3;;
80868;SDS011;70295;40.182;44.498;2024-01-11T00:16:02;29.1;;;16.1;;
80868;SDS011;70295;40.182;44.498;2024-01-11T00:18:03;25;;;15;;
80868;SDS011;70295;40.182;44.498;2024-01-11T00:20:02;28.1;;;14.8;;
80868;SDS011;70295;40.182;44.498;2024-01-11T00:22:02;25;;;14.4;;
80868;SDS011;70295;40.182;44.498;2024-01-11T00:24:02;24;;;13.8;;
80868;SDS011;70295;40.182;44.498;2024-01-11T00:26:02;20.2;;;12.1;;
80868;SDS011;70295;40.182;44.498;2024-01-11T00:28:02;20.2;;;11.7;;
80868;SDS011;70295;40.182;44.498;2024-01-11T00:30:03;22.1;;;13.6;;
80868;SDS011;70295;40.182;44.498;2024-01-11T00:32:03;20.5;;;12.2;;
80868;SDS011;70295;40.182;44.498;2024-01-11T00:34:02;16.6;;;11.1;;
80868;SDS011;70295;40.182;44.498;2024-01-11T00:36:03;19.5;;;12.1;;
80868;SDS011;70295;40.182;44.498;2024-01-11T00:38:02;19.7;;;11.2;;
80868;SDS011;70295;40.182;44.498;2024-01-11T00:40:03;16;;;10.1;;
80868;SDS011;70295;40.182;44.498;2024-01-11T00:42:02;18.8;;;10.5;;
80868;SDS011;70295;40.182;44.498;2024-01-11T00:44:02;16.2;;;9.7;;
80868;SDS011;70295;40.182;44.498;2024-01-11T00:46:02;17;;;10.8;;
80868;SDS011;70295;40.182;44.498;2024-01-11T00:48:03;17.4;;;10.2;;
80868;SDS011;70295;40.182;44.498;2024-01-11T00:50:02;17.6;;;10.1;;
80868;SDS011;70295;40.182;44.498;2024-01-11T00:52:02;18.3;;;11.1;;
80868;SDS011;70295;40.182;44.498;2024-01-11T00:54:02;18.3;;;10.7;;
80868;SDS011;70295;40.182;44.498;2024-01-11T00:56:02;19.3;;;11.1;;
80868;SDS011;70295;40.182;44.498;2024-01-11T00:58:02;15.2;;;9.8;;
80868;SDS011;70295;40.182;44.498;2024-01-11T01:00:02;18.6;;;11;;
80868;SDS011;70295;40.182;44.498;2024-01-11T01:02:02;17.1;;;10.5;;
80868;SDS011;70295;40.182;44.498;2024-01-11T01:04:02;14.8;;;9.5;;
80868;SDS011;70295;40.182;44.498;2024-01-11T01:06:03;16.1;;;9.7;;
80868;SDS011;70295;40.182;44.498;2024-01-11T01:08:02;17.1;;;10.3;;
80868;SDS011;70295;40.182;44.498;2024-01-11T01:10:02;16.7;;;9.3;;
80868;SDS011;70295;40.182;44.498;2024-01-11T01:12:03;14.3;;;8.9;;
80868;SDS011;70295;40.182;44.498;2024-01-11T01:14:02;16.2;;;8.9;;
80868;SDS011;70295;40.182;44.498;2024-01-11T01:16:02;14.6;;;9.1;;
80868;SDS011;70295;40.182;44.498;2024-01-11T01:18:02;14.2;;;7.9;;
80868;SDS011;70295;40.182;44.498;2024-01-11T01:20:02;13.7;;;7.8;;
80868;SDS011;70295;40.182;44.498;2024-01-11T01:22:02;12.3;;;7.7;;
80868;SDS011;70295;40.182;44.498;2024-01-11T01:24:02;14.2;;;8.2;;
80868;SDS011;70295;40.182;44.498;2024-01-11T01:26:02;14.4;;;7.5;;
80868;SDS011;70295;40.182;44.498;2024-01-11T01:28:02;15.7;;;8;;
80868;SDS011;70295;40.182;44.498;2024-01-11T01:30:03;12.6;;;8.1;;
80868;SDS011;70295;40.182;44.498;2024-01-11T01:32:02;13.4;;;7.1;;
80868;SDS011;70295;40.182;44.498;2024-01-11T01:34:03;12;;;6.5;;
80868;SDS011;70295;40.182;44.498;2024-01-11T01:36:02;12.3;;;6.6;;
80868;SDS011;70295;40.182;44.498;2024-01-11T01:38:02;13.1;;;8.1;;
80868;SDS011;70295;40.182;44.498;2024-01-11T01:40:02;13.8;;;7;;
80868;SDS011;70295;40.182;44.498;2024-01-11T01:42:02;13;;;7.1;;
80868;SDS011;70295;40.182;44.498;2024-01-11T01:44:02;13.2;;;7.8;;
80868;SDS011;70295;40.182;44.498;2024-01-11T01:46:03;15.3;;;8.1;;
80868;SDS011;70295;40.182;44.498;2024-01-11T01:48:03;12.8;;;8.1;;
80868;SDS011;70295;40.182;44.498;2024-01-11T01:50:02;13.4;;;7.3;;
80868;SDS011;70295;40.182;44.498;2024-01-11T01:52:03;14.3;;;8.3;;
80868;SDS011;70295;40.182;44.498;2024-01-11T01:54:03;13.7;;;7.5;;
80868;SDS011;70295;40.182;44.498;2024-01-11T01:56:02;14.4;;;7.8;;
80868;SDS011;70295;40.182;44.498;2024-01-11T01:58:03;14.1;;;7.8;;
80868;SDS011;70295;40.182;44.498;2024-01-11T02:00:03;14.7;;;7.4;;
80868;SDS011;70295;40.182;44.498;2024-01-11T02:02:02;16.1;;;8.8;;
80868;SDS011;70295;40.182;44.498;2024-01-11T02:04:02;13.3;;;7.4;;
80868;SDS011;70295;40.182;44.498;2024-01-11T02:06:04;12.8;;;7.9;;
80868;SDS011;70295;40.182;44.498;2024-01-11T02:08:04;13.9;;;7.9;;
80868;SDS011;70295;40.182;44.498;2024-01-11T02:10:02;14.4;;;7.7;;
80868;SDS011;70295;40.182;44.498;2024-01-11T02:12:02;15.3;;;8.4;;
80868;SDS011;70295;40.182;44.498;2024-01-11T02:14:02;13.4;;;7.5;;
80868;SDS011;70295;40.182;44.498;2024-01-11T02:16:02;15.1;;;7.4;;
80868;SDS011;70295;40.182;44.498;2024-01-11T02:18:02;13.3;;;7.5;;
80868;SDS011;70295;40.182;44.498;2024-01-11T02:20:02;14;;;7.5;;
80868;SDS011;70295;40.182;44.498;2024-01-11T02:22:10;12.8;;;6.9;;
80868;SDS011;70295;40.182;44.498;2024-01-11T02:24:06;12.8;;;7;;
80868;SDS011;70295;40.182;44.498;2024-01-11T02:26:02;12.8;;;7.3;;
80868;SDS011;70295;40.182;44.498;2024-01-11T02:28:02;14.1;;;7.1;;
80868;SDS011;70295;40.182;44.498;2024-01-11T02:30:02;14.2;;;7.6;;
80868;SDS011;70295;40.182;44.498;2024-01-11T02:32:02;12.5;;;7.4;;
80868;SDS011;70295;40.182;44.498;2024-01-11T02:34:02;13.2;;;7.5;;
80868;SDS011;70295;40.182;44.498;2024-01-11T02:36:02;11.5;;;6.5;;
80868;SDS011;70295;40.182;44.498;2024-01-11T02:38:02;11.7;;;6.4;;
80868;SDS011;70295;40.182;44.498;2024-01-11T02:40:02;12.4;;;7.2;;
80868;SDS011;70295;40.182;44.498;2024-01-11T02:42:02;11.4;;;6;;
80868;SDS011;70295;40.182;44.498;2024-01-11T02:44:02;9.5;;;6.1;;
80868;SDS011;70295;40.182;44.498;2024-01-11T02:46:02;11.9;;;6.3;;
80868;SDS011;70295;40.182;44.498;2024-01-11T02:48:02;12.3;;;6.7;;
80868;SDS011;70295;40.182;44.498;2024-01-11T02:50:02;11.8;;;6.8;;
80868;SDS011;70295;40.182;44.498;2024-01-11T02:52:02;12.4;;;7.4;;
80868;SDS011;70295;40.182;44.498;2024-01-11T02:54:02;13.1;;;7.1;;
80868;SDS011;70295;40.182;44.498;2024-01-11T02:56:02;12.4;;;7.5;;
80868;SDS011;70295;40.182;44.498;2024-01-11T02:58:02;12.1;;;6.5;;
80868;SDS011;70295;40.182;44.498;2024-01-11T03:00:02;12.3;;;6.8;;
80868;SDS011;70295;40.182;44.498;2024-01-11T03:02:02;11.4;;;6.7;;
80868;SDS011;70295;40.182;44.498;2024-01-11T03:04:02;11.3;;;6.7;;
80868;SDS011;70295;40.182;44.498;2024-01-11T03:06:02;12.5;;;6.6;;
80868;SDS011;70295;40.182;44.498;2024-01-11T03:08:02;12.1;;;6.2;;
80868;SDS011;70295;40.182;44.498;2024-01-11T03:10:02;12.5;;;6.6;;
80868;SDS011;70295;40.182;44.498;2024-01-11T03:12:02;10.9;;;6.3;;
80868;SDS011;70295;40.182;44.498;2024-01-11T03:14:02;13;;;6.7;;
80868;SDS011;70295;40.182;44.498;2024-01-11T03:16:02;9.9;;;5.8;;
80868;SDS011;70295;40.182;44.498;2024-01-11T03:18:02;9.8;;;5.9;;
80868;SDS011;70295;40.182;44.498;2024-01-11T03:20:02;12.2;;;6.3;;
80868;SDS011;70295;40.182;44.498;2024-01-11T03:22:02;11.9;;;6.3;;
80868;SDS011;70295;40.182;44.498;2024-01-11T03:24:02;11.6;;;6.2;;
80868;SDS011;70295;40.182;44.498;2024-01-11T03:26:02;12.2;;;6.5;;
80868;SDS011;70295;40.182;44.498;2024-01-11T03:28:02;11.3;;;6.7;;
80868;SDS011;70295;40.182;44.498;2024-01-11T03:30:02;11.5;;;6.9;;
80868;SDS011;70295;40.182;44.498;2024-01-11T03:32:02;13.4;;;6.7;;
80868;SDS011;70295;40.182;44.498;2024-01-11T03:34:02;12.5;;;6.5;;
80868;SDS011;70295;40.182;44.498;2024-01-11T03:36:10;13.6;;;6.8;;
80868;SDS011;70295;40.182;44.498;2024-01-11T03:38:02;15.2;;;8.2;;
80868;SDS011;70295;40.182;44.498;2024-01-11T03:40:03;19.4;;;11.2;;
80868;SDS011;70295;40.182;44.498;2024-01-11T03:42:02;27.8;;;14.6;;
80868;SDS011;70295;40.182;44.498;2024-01-11T03:44:02;33;;;16.7;;
80868;SDS011;70295;40.182;44.498;2024-01-11T03:46:02;30.1;;;15.1;;
80868;SDS011;70295;40.182;44.498;2024-01-11T03:48:02;27.8;;;14.5;;
80868;SDS011;70295;40.182;44.498;2024-01-11T03:50:02;28.9;;;15.2;;
80868;SDS011;70295;40.182;44.498;2024-01-11T03:52:02;28.6;;;15.3;;
80868;SDS011;70295;40.182;44.498;2024-01-11T03:59:11;30.5;;;15.2;;
80868;SDS011;70295;40.182;44.498;2024-01-11T04:01:11;29;;;14.9;;
80868;SDS011;70295;40.182;44.498;2024-01-11T04:03:11;26.3;;;13.9;;
80868;SDS011;70295;40.182;44.498;2024-01-11T04:05:11;29.6;;;16.1;;
80868;SDS011;70295;40.182;44.498;2024-01-11T04:07:11;29.1;;;14.5;;
80868;SDS011;70295;40.182;44.498;2024-01-11T04:09:11;26.7;;;14.1;;
80868;SDS011;70295;40.182;44.498;2024-01-11T04:11:11;27.1;;;13.2;;
80868;SDS011;70295;40.182;44.498;2024-01-11T04:13:11;25.7;;;14.5;;
80868;SDS011;70295;40.182;44.498;2024-01-11T04:15:12;24.8;;;13.6;;
80868;SDS011;70295;40.182;44.498;2024-01-11T04:17:11;25.9;;;13.3;;
80868;SDS011;70295;40.182;44.498;2024-01-11T04:19:11;23.5;;;12.5;;
80868;SDS011;70295;40.182;44.498;2024-01-11T04:23:11;23;;;11.9;;
80868;SDS011;70295;40.182;44.498;2024-01-11T04:25:11;22;;;12.1;;
80868;SDS011;70295;40.182;44.498;2024-01-11T04:27:11;23.7;;;12.6;;
80868;SDS011;70295;40.182;44.498;2024-01-11T04:29:11;23.2;;;12;;
80868;SDS011;70295;40.182;44.498;2024-01-11T04:31:12;21.6;;;12.5;;
80868;SDS011;70295;40.182;44.498;2024-01-11T04:33:11;18.9;;;11.1;;
80868;SDS011;70295;40.182;44.498;2024-01-11T04:35:11;17.7;;;10.5;;
80868;SDS011;70295;40.182;44.498;2024-01-11T04:37:11;18.5;;;10.2;;
80868;SDS011;70295;40.182;44.498;2024-01-11T04:39:11;18.8;;;10.6;;
80868;SDS011;70295;40.182;44.498;2024-01-11T04:41:13;17.1;;;9.8;;
80868;SDS011;70295;40.182;44.498;2024-01-11T04:43:11;18.1;;;10.1;;
80868;SDS011;70295;40.182;44.498;2024-01-11T04:45:11;21.6;;;11.8;;
80868;SDS011;70295;40.182;44.498;2024-01-11T04:47:11;20.1;;;10.9;;
80868;SDS011;70295;40.182;44.498;2024-01-11T04:49:11;20.5;;;11.4;;
80868;SDS011;70295;40.182;44.498;2024-01-11T04:51:15;21.9;;;11.8;;
80868;SDS011;70295;40.182;44.498;2024-01-11T04:53:11;21.7;;;11.5;;
80868;SDS011;70295;40.182;44.498;2024-01-11T04:55:11;20.7;;;11.7;;
80868;SDS011;70295;40.182;44.498;2024-01-11T04:57:11;20.6;;;11.2;;
80868;SDS011;70295;40.182;44.498;2024-01-11T04:59:11;21;;;11.9;;
80868;SDS011;70295;40.182;44.498;2024-01-11T05:01:13;20;;;11;;
80868;SDS011;70295;40.182;44.498;2024-01-11T05:03:11;21.2;;;11.5;;
80868;SDS011;70295;40.182;44.498;2024-01-11T05:05:11;21.8;;;11.8;;
80868;SDS011;70295;40.182;44.498;2024-01-11T05:07:11;21.2;;;11.9;;
80868;SDS011;70295;40.182;44.498;2024-01-11T05:09:11;21.6;;;11;;
80868;SDS011;70295;40.182;44.498;2024-01-11T05:11:19;19.3;;;10.5;;
80868;SDS011;70295;40.182;44.498;2024-01-11T05:13:11;21.1;;;11.9;;
80868;SDS011;70295;40.182;44.498;2024-01-11T05:15:11;22.6;;;11.2;;
80868;SDS011;70295;40.182;44.498;2024-01-11T05:17:11;21.3;;;11.5;;
80868;SDS011;70295;40.182;44.498;2024-01-11T05:24:41;20.8;;;11.7;;
80868;SDS011;70295;40.182;44.498;2024-01-11T05:26:41;24.4;;;11.4;;
80868;SDS011;70295;40.182;44.498;2024-01-11T05:28:41;21.8;;;11.6;;
80868;SDS011;70295;40.182;44.498;2024-01-11T05:30:41;20.8;;;10.7;;
80868;SDS011;70295;40.182;44.498;2024-01-11T05:32:41;20.5;;;11.3;;
80868;SDS011;70295;40.182;44.498;2024-01-11T05:34:41;20.1;;;11.5;;
80868;SDS011;70295;40.182;44.498;2024-01-11T05:36:41;23.7;;;12.1;;
80868;SDS011;70295;40.182;44.498;2024-01-11T05:38:41;22.5;;;12.8;;
80868;SDS011;70295;40.182;44.498;2024-01-11T05:46:15;25.5;;;13.6;;
80868;SDS011;70295;40.182;44.498;2024-01-11T05:48:15;23.1;;;13.5;;
80868;SDS011;70295;40.182;44.498;2024-01-11T05:50:15;26.1;;;13.2;;
80868;SDS011;70295;40.182;44.498;2024-01-11T05:52:15;23.4;;;13.7;;
80868;SDS011;70295;40.182;44.498;2024-01-11T05:54:15;22.9;;;13.5;;
80868;SDS011;70295;40.182;44.498;2024-01-11T05:56:15;23.8;;;12.8;;
80868;SDS011;70295;40.182;44.498;2024-01-11T05:58:15;23;;;13;;
80868;SDS011;70295;40.182;44.498;2024-01-11T06:00:15;22;;;12.3;;
80868;SDS011;70295;40.182;44.498;2024-01-11T06:02:15;23.3;;;13.4;;
80868;SDS011;70295;40.182;44.498;2024-01-11T06:04:15;22.5;;;12.6;;
80868;SDS011;70295;40.182;44.498;2024-01-11T06:06:15;25.8;;;12.4;;
80868;SDS011;70295;40.182;44.498;2024-01-11T06:08:15;21;;;11.7;;
80868;SDS011;70295;40.182;44.498;2024-01-11T06:10:15;21.5;;;12.4;;
80868;SDS011;70295;40.182;44.498;2024-01-11T06:12:15;22.3;;;12.3;;
80868;SDS011;70295;40.182;44.498;2024-01-11T06:14:15;23.3;;;12.9;;
80868;SDS011;70295;40.182;44.498;2024-01-11T06:16:15;22.7;;;11.9;;
80868;SDS011;70295;40.182;44.498;2024-01-11T06:18:15;21;;;12.3;;
80868;SDS011;70295;40.182;44.498;2024-01-11T06:20:15;22.8;;;12.2;;
80868;SDS011;70295;40.182;44.498;2024-01-11T06:22:15;22.7;;;12.4;;
80868;SDS011;70295;40.182;44.498;2024-01-11T06:24:15;23.4;;;13.1;;
80868;SDS011;70295;40.182;44.498;2024-01-11T06:26:15;19.5;;;12.2;;
80868;SDS011;70295;40.182;44.498;2024-01-11T06:28:15;23;;;12.1;;
80868;SDS011;70295;40.182;44.498;2024-01-11T06:30:15;22.6;;;12.6;;
80868;SDS011;70295;40.182;44.498;2024-01-11T06:32:15;20.4;;;11.9;;
80868;SDS011;70295;40.182;44.498;2024-01-11T06:34:15;22.9;;;11.3;;
80868;SDS011;70295;40.182;44.498;2024-01-11T06:36:15;21.6;;;12;;
80868;SDS011;70295;40.182;44.498;2024-01-11T06:38:15;21.8;;;11.9;;
80868;SDS011;70295;40.182;44.498;2024-01-11T06:40:15;22.3;;;12.3;;
80868;SDS011;70295;40.182;44.498;2024-01-11T06:42:15;21.2;;;11;;
80868;SDS011;70295;40.182;44.498;2024-01-11T06:44:14;21;;;12;;
80868;SDS011;70295;40.182;44.498;2024-01-11T06:46:19;21;;;11.5;;
80868;SDS011;70295;40.182;44.498;2024-01-11T06:48:15;21.7;;;12.9;;
80868;SDS011;70295;40.182;44.498;2024-01-11T06:50:15;21.1;;;11.4;;
80868;SDS011;70295;40.182;44.498;2024-01-11T06:52:15;21.6;;;11.3;;
80868;SDS011;70295;40.182;44.498;2024-01-11T06:54:15;21.9;;;11.5;;
80868;SDS011;70295;40.182;44.498;2024-01-11T06:56:19;20.5;;;10.5;;
80868;SDS011;70295;40.182;44.498;2024-01-11T06:58:15;18.7;;;10.9;;
80868;SDS011;70295;40.182;44.498;2024-01-11T07:00:15;19.2;;;10;;
80868;SDS011;70295;40.182;44.498;2024-01-11T07:02:15;17.6;;;10.1;;
80868;SDS011;70295;40.182;44.498;2024-01-11T07:04:15;17.9;;;9.9;;
80868;SDS011;70295;40.182;44.498;2024-01-11T07:06:15;16.3;;;9.9;;
80868;SDS011;70295;40.182;44.498;2024-01-11T07:08:14;17.8;;;9.7;;
80868;SDS011;70295;40.182;44.498;2024-01-11T07:10:14;17.8;;;9.7;;
80868;SDS011;70295;40.182;44.498;2024-01-11T07:12:14;18.6;;;9.9;;
80868;SDS011;70295;40.182;44.498;2024-01-11T07:14:15;19.3;;;9.7;;
80868;SDS011;70295;40.182;44.498;2024-01-11T07:16:15;18.2;;;10.2;;
80868;SDS011;70295;40.182;44.498;2024-01-11T07:18:15;18.5;;;10.5;;
80868;SDS011;70295;40.182;44.498;2024-01-11T07:20:15;21.5;;;10.9;;
80868;SDS011;70295;40.182;44.498;2024-01-11T07:22:14;18.2;;;11.3;;
80868;SDS011;70295;40.182;44.498;2024-01-11T07:24:15;20.7;;;11.1;;
80868;SDS011;70295;40.182;44.498;2024-01-11T07:26:15;21.9;;;11.8;;
80868;SDS011;70295;40.182;44.498;2024-01-11T07:28:14;22.2;;;12.6;;
80868;SDS011;70295;40.182;44.498;2024-01-11T07:30:15;22.2;;;12.1;;
80868;SDS011;70295;40.182;44.498;2024-01-11T07:32:14;19.5;;;10.7;;
80868;SDS011;70295;40.182;44.498;2024-01-11T07:34:14;21.9;;;12.2;;
80868;SDS011;70295;40.182;44.498;2024-01-11T07:36:14;22.2;;;12.5;;
80868;SDS011;70295;40.182;44.498;2024-01-11T07:38:14;22.5;;;12.1;;
80868;SDS011;70295;40.182;44.498;2024-01-11T07:40:15;21.2;;;11.5;;
80868;SDS011;70295;40.182;44.498;2024-01-11T07:42:14;16.3;;;10;;
80868;SDS011;70295;40.182;44.498;2024-01-11T07:44:14;16.4;;;9.7;;
80868;SDS011;70295;40.182;44.498;2024-01-11T07:46:14;18.4;;;10;;
80868;SDS011;70295;40.182;44.498;2024-01-11T07:48:14;16.4;;;9.5;;
80868;SDS011;70295;40.182;44.498;2024-01-11T07:50:14;20.9;;;10.7;;
80868;SDS011;70295;40.182;44.498;2024-01-11T07:52:14;17.4;;;9.6;;
80868;SDS011;70295;40.182;44.498;2024-01-11T07:54:15;18.9;;;10.2;;
80868;SDS011;70295;40.182;44.498;2024-01-11T07:56:14;19.8;;;11.4;;
80868;SDS011;70295;40.182;44.498;2024-01-11T07:58:14;22.8;;;11.3;;
80868;SDS011;70295;40.182;44.498;2024-01-11T08:00:15;20.2;;;11.4;;
80868;SDS011;70295;40.182;44.498;2024-01-11T08:02:14;17.4;;;10.7;;
80868;SDS011;70295;40.182;44.498;2024-01-11T08:04:14;21.7;;;11.2;;
80868;SDS011;70295;40.182;44.498;2024-01-11T08:06:14;23.1;;;12.4;;
80868;SDS011;70295;40.182;44.498;2024-01-11T08:08:14;22.5;;;11.8;;
80868;SDS011;70295;40.182;44.498;2024-01-11T08:10:15;18.2;;;11.1;;
80868;SDS011;70295;40.182;44.498;2024-01-11T08:12:15;18;;;10.2;;
80868;SDS011;70295;40.182;44.498;2024-01-11T08:14:14;18.7;;;9.8;;
80868;SDS011;70295;40.182;44.498;2024-01-11T08:16:17;17.6;;;9.7;;
80868;SDS011;70295;40.182;44.498;2024-01-11T08:18:14;17.3;;;9.7;;
80868;SDS011;70295;40.182;44.498;2024-01-11T08:20:14;16.8;;;9.3;;
80868;SDS011;70295;40.182;44.498;2024-01-11T08:22:15;13;;;7.2;;
80868;SDS011;70295;40.182;44.498;2024-01-11T08:24:14;15.9;;;8.7;;
80868;SDS011;70295;40.182;44.498;2024-01-11T08:26:15;12.4;;;6.7;;
80868;SDS011;70295;40.182;44.498;2024-01-11T08:28:14;10.8;;;6.5;;
80868;SDS011;70295;40.182;44.498;2024-01-11T08:30:15;18.1;;;8.6;;
80868;SDS011;70295;40.182;44.498;2024-01-11T08:32:14;19.5;;;10.5;;
80868;SDS011;70295;40.182;44.498;2024-01-11T08:34:14;19.9;;;10.2;;
80868;SDS011;70295;40.182;44.498;2024-01-11T08:36:14;21;;;11;;
80868;SDS011;70295;40.182;44.498;2024-01-11T08:38:14;18.2;;;10;;
80868;SDS011;70295;40.182;44.498;2024-01-11T08:40:14;16.4;;;9.8;;
80868;SDS011;70295;40.182;44.498;2024-01-11T08:42:14;18.2;;;10;;
80868;SDS011;70295;40.182;44.498;2024-01-11T08:44:14;18.8;;;10.1;;
80868;SDS011;70295;40.182;44.498;2024-01-11T08:48:14;23.3;;;13;;
80868;SDS011;70295;40.182;44.498;2024-01-11T08:50:15;28.3;;;14.9;;
80868;SDS011;70295;40.182;44.498;2024-01-11T08:52:14;24.5;;;13.8;;
80868;SDS011;70295;40.182;44.498;2024-01-11T08:54:14;27.6;;;14.8;;
80868;SDS011;70295;40.182;44.498;2024-01-11T08:56:14;25.9;;;14.4;;
80868;SDS011;70295;40.182;44.498;2024-01-11T08:58:14;27;;;13.4;;
80868;SDS011;70295;40.182;44.498;2024-01-11T09:00:15;24.9;;;13.8;;
80868;SDS011;70295;40.182;44.498;2024-01-11T09:02:14;29.2;;;16.2;;
80868;SDS011;70295;40.182;44.498;2024-01-11T09:04:14;27.6;;;14.8;;
80868;SDS011;70295;40.182;44.498;2024-01-11T09:06:14;28.5;;;15.9;;
80868;SDS011;70295;40.182;44.498;2024-01-11T09:08:14;27.5;;;15.4;;
80868;SDS011;70295;40.182;44.498;2024-01-11T09:10:14;29.6;;;15.5;;
80868;SDS011;70295;40.182;44.498;2024-01-11T09:12:14;29;;;14.7;;
80868;SDS011;70295;40.182;44.498;2024-01-11T09:14:14;28.4;;;14.4;;
80868;SDS011;70295;40.182;44.498;2024-01-11T09:16:15;28.4;;;15.1;;
80868;SDS011;70295;40.182;44.498;2024-01-11T09:18:14;28.8;;;15.1;;
80868;SDS011;70295;40.182;44.498;2024-01-11T09:20:14;31.4;;;15.5;;
80868;SDS011;70295;40.182;44.498;2024-01-11T09:22:14;29.4;;;15.7;;
80868;SDS011;70295;40.182;44.498;2024-01-11T09:24:14;30.3;;;16;;
80868;SDS011;70295;40.182;44.498;2024-01-11T09:26:14;32.2;;;17.4;;
80868;SDS011;70295;40.182;44.498;2024-01-11T09:28:14;28.9;;;16.5;;
80868;SDS011;70295;40.182;44.498;2024-01-11T09:30:15;33.5;;;18;;
80868;SDS011;70295;40.182;44.498;2024-01-11T09:32:14;29.3;;;16.4;;
80868;SDS011;70295;40.182;44.498;2024-01-11T09:34:14;32.2;;;17;;
80868;SDS011;70295;40.182;44.498;2024-01-11T09:36:14;32.1;;;16.3;;
80868;SDS011;70295;40.182;44.498;2024-01-11T09:38:14;32.9;;;15.9;;
80868;SDS011;70295;40.182;44.498;2024-01-11T09:40:14;32.8;;;16.5;;
80868;SDS011;70295;40.182;44.498;2024-01-11T09:42:14;32.7;;;16.7;;
80868;SDS011;70295;40.182;44.498;2024-01-11T09:44:14;31.7;;;16.7;;
80868;SDS011;70295;40.182;44.498;2024-01-11T09:46:15;29.4;;;14.8;;
80868;SDS011;70295;40.182;44.498;2024-01-11T09:48:15;33.3;;;16.3;;
80868;SDS011;70295;40.182;44.498;2024-01-11T09:50:15;33.8;;;17.1;;
80868;SDS011;70295;40.182;44.498;2024-01-11T09:52:15;36.2;;;17.8;;
80868;SDS011;70295;40.182;44.498;2024-01-11T09:54:15;36.7;;;19;;
80868;SDS011;70295;40.182;44.498;2024-01-11T09:56:14;33.4;;;18.1;;
80868;SDS011;70295;40.182;44.498;2024-01-11T09:58:14;33.8;;;18.1;;
80868;SDS011;70295;40.182;44.498;2024-01-11T10:00:18;36;;;18.9;;
80868;SDS011;70295;40.182;44.498;2024-01-11T10:02:14;39.7;;;19.3;;
80868;SDS011;70295;40.182;44.498;2024-01-11T10:04:15;35.5;;;18.8;;
80868;SDS011;70295;40.182;44.498;2024-01-11T10:06:14;36.5;;;18.5;;
80868;SDS011;70295;40.182;44.498;2024-01-11T10:08:15;39;;;19.6;;
80868;SDS011;70295;40.182;44.498;2024-01-11T10:10:14;38.1;;;19.4;;
80868;SDS011;70295;40.182;44.498;2024-01-11T10:12:15;40.6;;;21;;
80868;SDS011;70295;40.182;44.498;2024-01-11T10:14:14;42.9;;;21.6;;
80868;SDS011;70295;40.182;44.498;2024-01-11T10:16:14;40.2;;;20.6;;
80868;SDS011;70295;40.182;44.498;2024-01-11T10:18:14;44.1;;;20.7;;
80868;SDS011;70295;40.182;44.498;2024-01-11T10:20:15;40.5;;;20.4;;
80868;SDS011;70295;40.182;44.498;2024-01-11T10:22:14;40.1;;;21.3;;
80868;SDS011;70295;40.182;44.498;2024-01-11T10:24:18;40.1;;;20.5;;
80868;SDS011;70295;40.182;44.498;2024-01-11T10:26:17;41.7;;;22.2;;
80868;SDS011;70295;40.182;44.498;2024-01-11T10:28:14;41.5;;;19.6;;
80868;SDS011;70295;40.182;44.498;2024-01-11T10:30:16;33.6;;;19;;
80868;SDS011;70295;40.182;44.498;2024-01-11T10:32:14;39.1;;;19.9;;
80868;SDS011;70295;40.182;44.498;2024-01-11T10:34:15;37.1;;;19.4;;
80868;SDS011;70295;40.182;44.498;2024-01-11T10:36:14;35.9;;;18.4;;
80868;SDS011;70295;40.182;44.498;2024-01-11T10:38:14;39.2;;;18.8;;
80868;SDS011;70295;40.182;44.498;2024-01-11T10:40:15;37.3;;;18.9;;
80868;SDS011;70295;40.182;44.498;2024-01-11T10:42:18;38.3;;;19.4;;
80868;SDS011;70295;40.182;44.498;2024-01-11T10:44:21;37.6;;;19.7;;
80868;SDS011;70295;40.182;44.498;2024-01-11T10:46:15;38.3;;;19.6;;
80868;SDS011;70295;40.182;44.498;2024-01-11T10:48:15;38.4;;;19.8;;
80868;SDS011;70295;40.182;44.498;2024-01-11T10:50:15;37.6;;;20;;
80868;SDS011;70295;40.182;44.498;2024-01-11T10:52:15;41;;;20.7;;
80868;SDS011;70295;40.182;44.498;2024-01-11T10:54:15;41;;;21.1;;
80868;SDS011;70295;40.182;44.498;2024-01-11T10:56:15;38.9;;;19.7;;
80868;SDS011;70295;40.182;44.498;2024-01-11T10:58:15;38.6;;;20.5;;
80868;SDS011;70295;40.182;44.498;2024-01-11T11:00:15;38.6;;;20.4;;
80868;SDS011;70295;40.182;44.498;2024-01-11T11:02:15;35.8;;;20;;
80868;SDS011;70295;40.182;44.498;2024-01-11T11:04:15;36.3;;;18.5;;
80868;SDS011;70295;40.182;44.498;2024-01-11T11:06:18;37.1;;;19.2;;
80868;SDS011;70295;40.182;44.498;2024-01-11T11:08:14;35.3;;;19.1;;
80868;SDS011;70295;40.182;44.498;2024-01-11T11:10:15;35.7;;;18.3;;
80868;SDS011;70295;40.182;44.498;2024-01-11T11:12:15;38.7;;;19.7;;
80868;SDS011;70295;40.182;44.498;2024-01-11T11:14:15;36.2;;;18.4;;
80868;SDS011;70295;40.182;44.498;2024-01-11T11:16:15;32.4;;;18.4;;
80868;SDS011;70295;40.182;44.498;2024-01-11T11:18:15;31.6;;;16.1;;
80868;SDS011;70295;40.182;44.498;2024-01-11T11:20:14;35.2;;;18.1;;
80868;SDS011;70295;40.182;44.498;2024-01-11T11:22:14;36.6;;;18.7;;
80868;SDS011;70295;40.182;44.498;2024-01-11T11:24:16;36.2;;;17.6;;
80868;SDS011;70295;40.182;44.498;2024-01-11T11:26:15;36.6;;;19.4;;
80868;SDS011;70295;40.182;44.498;2024-01-11T11:28:16;37.8;;;18.9;;
80868;SDS011;70295;40.182;44.498;2024-01-11T11:30:14;34;;;18.4;;
80868;SDS011;70295;40.182;44.498;2024-01-11T11:32:14;34.9;;;17;;
80868;SDS011;70295;40.182;44.498;2024-01-11T11:34:14;33.3;;;17.4;;
80868;SDS011;70295;40.182;44.498;2024-01-11T11:36:17;37.1;;;18.4;;
80868;SDS011;70295;40.182;44.498;2024-01-11T11:38:19;35.6;;;17.5;;
80868;SDS011;70295;40.182;44.498;2024-01-11T11:40:14;35.7;;;18;;
80868;SDS011;70295;40.182;44.498;2024-01-11T11:42:14;34.6;;;18.5;;
80868;SDS011;70295;40.182;44.498;2024-01-11T11:44:14;35.9;;;17.9;;
80868;SDS011;70295;40.182;44.498;2024-01-11T11:46:14;32.8;;;17.5;;
80868;SDS011;70295;40.182;44.498;2024-01-11T11:50:14;37;;;18.6;;
80868;SDS011;70295;40.182;44.498;2024-01-11T11:52:15;36.5;;;17.8;;
80868;SDS011;70295;40.182;44.498;2024-01-11T11:54:14;34.8;;;17;;
80868;SDS011;70295;40.182;44.498;2024-01-11T11:56:16;35.2;;;17.9;;
80868;SDS011;70295;40.182;44.498;2024-01-11T11:58:14;34.7;;;17.6;;
80868;SDS011;70295;40.182;44.498;2024-01-11T12:00:15;33.8;;;17.2;;
80868;SDS011;70295;40.182;44.498;2024-01-11T12:02:16;35.2;;;18;;
80868;SDS011;70295;40.182;44.498;2024-01-11T12:04:14;37.3;;;18.8;;
80868;SDS011;70295;40.182;44.498;2024-01-11T12:06:16;37.5;;;18.8;;
80868;SDS011;70295;40.182;44.498;2024-01-11T12:08:14;39.4;;;19.2;;
80868;SDS011;70295;40.182;44.498;2024-01-11T12:10:14;36.2;;;17.9;;
80868;SDS011;70295;40.182;44.498;2024-01-11T12:12:15;41.1;;;19.1;;
80868;SDS011;70295;40.182;44.498;2024-01-11T12:14:14;41;;;19.6;;
80868;SDS011;70295;40.182;44.498;2024-01-11T12:16:14;39.7;;;19.4;;
80868;SDS011;70295;40.182;44.498;2024-01-11T12:18:14;40.7;;;18.8;;
80868;SDS011;70295;40.182;44.498;2024-01-11T12:20:14;37.9;;;19.2;;